createdAt,value
2023-04-23T00:00:11.830Z,72
2023-04-23T00:30:14.563Z,77
2023-04-23T01:00:06.756Z,81
2023-04-23T01:30:19.477Z,83
2023-04-23T02:00:00.094Z,81
2023-04-23T02:30:03.746Z,81
2023-04-23T03:00:25.170Z,75
2023-04-23T03:30:27.732Z,73
2023-04-23T04:00:19.702Z,73
2023-04-23T05:00:12.507Z,74
2023-04-23T05:30:26.147Z,70
2023-04-23T06:00:17.396Z,71
2023-04-23T06:30:20.311Z,72
2023-04-23T07:00:11.340Z,69
2023-04-23T07:30:04.039Z,66
2023-04-23T08:00:06.717Z,67
2023-04-23T08:30:27.710Z,61
2023-04-23T09:00:11.831Z,59
2023-04-23T09:30:17.938Z,51
2023-04-23T10:00:11.329Z,51
2023-04-23T10:30:23.399Z,49
2023-04-23T11:00:27.517Z,51
2023-04-23T11:30:27.702Z,48
2023-04-23T12:00:20.913Z,44
2023-04-23T12:30:22.915Z,36
2023-04-23T13:00:13.929Z,29
2023-04-23T13:30:05.234Z,37
2023-04-23T14:00:02.959Z,40
2023-04-23T14:30:26.913Z,40
2023-04-23T15:00:17.012Z,42
2023-04-23T15:30:28.413Z,72
2023-04-23T16:00:01.945Z,62
2023-04-23T16:30:12.762Z,60
2023-04-23T17:00:26.183Z,59
2023-04-23T17:30:20.011Z,59
2023-04-23T18:00:20.964Z,64
2023-04-23T18:59:59.833Z,90
2023-04-23T19:30:26.412Z,86
2023-04-23T20:00:16.892Z,86
2023-04-23T20:30:30.011Z,85
2023-04-23T21:00:21.339Z,84
2023-04-23T21:30:24.106Z,81
2023-04-23T22:00:26.078Z,87
2023-04-23T22:30:17.278Z,81
2023-04-23T23:00:20.445Z,81
2023-04-23T23:30:07.830Z,78
